sensor_id;sensor_type;location;lat;lon;timestamp;pressure;altitude;pressure_sealevel;temperature
77728;BMP280;68312;53.502;10.030;2023-06-22T00:00:58;102214.41;;;16.12
77728;BMP280;68312;53.502;10.030;2023-06-22T00:03:25;102210.84;;;16.17
77728;BMP280;68312;53.502;10.030;2023-06-22T00:05:51;102208.47;;;16.15
77728;BMP280;68312;53.502;10.030;2023-06-22T00:08:18;102200.38;;;16.12
77728;BMP280;68312;53.502;10.030;2023-06-22T00:10:44;102203.66;;;16.09
77728;BMP280;68312;53.502;10.030;2023-06-22T00:13:12;102202.06;;;16.08
77728;BMP280;68312;53.502;10.030;2023-06-22T00:15:40;102201.00;;;16.09
77728;BMP280;68312;53.502;10.030;2023-06-22T00:18:07;102200.72;;;16.10
77728;BMP280;68312;53.502;10.030;2023-06-22T00:20:34;102199.91;;;16.10
77728;BMP280;68312;53.502;10.030;2023-06-22T00:23:00;102198.06;;;16.10
77728;BMP280;68312;53.502;10.030;2023-06-22T00:25:26;102201.47;;;16.11
77728;BMP280;68312;53.502;10.030;2023-06-22T00:27:51;102196.44;;;16.18
77728;BMP280;68312;53.502;10.030;2023-06-22T00:30:17;102191.13;;;16.26
77728;BMP280;68312;53.502;10.030;2023-06-22T00:32:44;102205.94;;;16.27
77728;BMP280;68312;53.502;10.030;2023-06-22T00:35:11;102204.22;;;16.23
77728;BMP280;68312;53.502;10.030;2023-06-22T00:37:38;102211.75;;;16.21
77728;BMP280;68312;53.502;10.030;2023-06-22T00:40:04;102217.34;;;16.19
77728;BMP280;68312;53.502;10.030;2023-06-22T00:42:31;102213.47;;;16.17
77728;BMP280;68312;53.502;10.030;2023-06-22T00:44:56;102214.41;;;16.12
77728;BMP280;68312;53.502;10.030;2023-06-22T00:47:22;102209.44;;;16.11
77728;BMP280;68312;53.502;10.030;2023-06-22T00:49:49;102218.94;;;16.12
77728;BMP280;68312;53.502;10.030;2023-06-22T00:52:15;102220.50;;;16.13
77728;BMP280;68312;53.502;10.030;2023-06-22T00:54:41;102220.03;;;16.11
77728;BMP280;68312;53.502;10.030;2023-06-22T00:57:06;102211.44;;;16.14
77728;BMP280;68312;53.502;10.030;2023-06-22T00:59:32;102216.44;;;16.15
77728;BMP280;68312;53.502;10.030;2023-06-22T01:01:57;102220.63;;;16.16
77728;BMP280;68312;53.502;10.030;2023-06-22T01:04:34;102219.88;;;16.16
77728;BMP280;68312;53.502;10.030;2023-06-22T01:10:17;102217.69;;;16.09
77728;BMP280;68312;53.502;10.030;2023-06-22T01:13:01;102220.03;;;16.03
77728;BMP280;68312;53.502;10.030;2023-06-22T01:15:45;102218.94;;;16.04
77728;BMP280;68312;53.502;10.030;2023-06-22T01:18:26;102216.19;;;16.00
77728;BMP280;68312;53.502;10.030;2023-06-22T01:20:56;102218.06;;;16.00
77728;BMP280;68312;53.502;10.030;2023-06-22T01:23:33;102213.06;;;15.98
77728;BMP280;68312;53.502;10.030;2023-06-22T01:29:08;102207.13;;;16.01
77728;BMP280;68312;53.502;10.030;2023-06-22T01:31:38;102208.22;;;16.00
77728;BMP280;68312;53.502;10.030;2023-06-22T01:34:07;102202.16;;;16.00
77728;BMP280;68312;53.502;10.030;2023-06-22T01:36:35;102204.47;;;16.01
77728;BMP280;68312;53.502;10.030;2023-06-22T01:39:03;102198.69;;;15.99
77728;BMP280;68312;53.502;10.030;2023-06-22T01:41:37;102201.03;;;16.01
77728;BMP280;68312;53.502;10.030;2023-06-22T01:44:05;102204.81;;;16.00
77728;BMP280;68312;53.502;10.030;2023-06-22T01:46:37;102201.34;;;15.99
77728;BMP280;68312;53.502;10.030;2023-06-22T01:49:05;102202.78;;;15.97
77728;BMP280;68312;53.502;10.030;2023-06-22T01:51:31;102202.00;;;15.96
77728;BMP280;68312;53.502;10.030;2023-06-22T01:53:57;102206.81;;;15.94
77728;BMP280;68312;53.502;10.030;2023-06-22T01:56:23;102200.41;;;15.87
77728;BMP280;68312;53.502;10.030;2023-06-22T01:59:11;102209.50;;;15.86
77728;BMP280;68312;53.502;10.030;2023-06-22T02:02:02;102213.84;;;15.82
77728;BMP280;68312;53.502;10.030;2023-06-22T02:04:44;102199.22;;;15.76
77728;BMP280;68312;53.502;10.030;2023-06-22T02:07:28;102201.41;;;15.74
77728;BMP280;68312;53.502;10.030;2023-06-22T02:10:03;102205.16;;;15.73
77728;BMP280;68312;53.502;10.030;2023-06-22T02:12:33;102205.81;;;15.70
77728;BMP280;68312;53.502;10.030;2023-06-22T02:15:01;102208.28;;;15.67
77728;BMP280;68312;53.502;10.030;2023-06-22T02:17:27;102198.16;;;15.69
77728;BMP280;68312;53.502;10.030;2023-06-22T02:19:54;102204.84;;;15.75
77728;BMP280;68312;53.502;10.030;2023-06-22T02:22:19;102203.09;;;15.78
77728;BMP280;68312;53.502;10.030;2023-06-22T02:24:45;102200.44;;;15.78
77728;BMP280;68312;53.502;10.030;2023-06-22T02:27:10;102196.25;;;15.78
77728;BMP280;68312;53.502;10.030;2023-06-22T02:29:36;102187.69;;;15.80
77728;BMP280;68312;53.502;10.030;2023-06-22T02:32:02;102177.41;;;15.79
77728;BMP280;68312;53.502;10.030;2023-06-22T02:34:28;102174.59;;;15.76
77728;BMP280;68312;53.502;10.030;2023-06-22T02:36:53;102185.69;;;15.69
77728;BMP280;68312;53.502;10.030;2023-06-22T02:41:46;102191.00;;;15.61
77728;BMP280;68312;53.502;10.030;2023-06-22T02:44:12;102186.63;;;15.56
77728;BMP280;68312;53.502;10.030;2023-06-22T02:46:37;102184.63;;;15.53
77728;BMP280;68312;53.502;10.030;2023-06-22T02:49:03;102184.63;;;15.53
77728;BMP280;68312;53.502;10.030;2023-06-22T02:51:28;102186.00;;;15.51
77728;BMP280;68312;53.502;10.030;2023-06-22T02:53:58;102190.84;;;15.49
77728;BMP280;68312;53.502;10.030;2023-06-22T02:56:23;102186.00;;;15.51
77728;BMP280;68312;53.502;10.030;2023-06-22T02:58:49;102183.19;;;15.56
77728;BMP280;68312;53.502;10.030;2023-06-22T03:01:14;102185.53;;;15.49
77728;BMP280;68312;53.502;10.030;2023-06-22T03:03:41;102197.09;;;15.45
77728;BMP280;68312;53.502;10.030;2023-06-22T03:06:06;102199.25;;;15.43
77728;BMP280;68312;53.502;10.030;2023-06-22T03:08:32;102198.34;;;15.39
77728;BMP280;68312;53.502;10.030;2023-06-22T03:11:00;102198.66;;;15.37
77728;BMP280;68312;53.502;10.030;2023-06-22T03:13:27;102192.69;;;15.40
77728;BMP280;68312;53.502;10.030;2023-06-22T03:15:52;102199.41;;;15.46
77728;BMP280;68312;53.502;10.030;2023-06-22T03:18:17;102203.94;;;15.46
77728;BMP280;68312;53.502;10.030;2023-06-22T03:20:46;102196.16;;;15.41
77728;BMP280;68312;53.502;10.030;2023-06-22T03:23:11;102203.28;;;15.40
77728;BMP280;68312;53.502;10.030;2023-06-22T03:25:37;102204.72;;;15.38
77728;BMP280;68312;53.502;10.030;2023-06-22T03:28:02;102214.38;;;15.42
77728;BMP280;68312;53.502;10.030;2023-06-22T03:30:28;102212.97;;;15.45
77728;BMP280;68312;53.502;10.030;2023-06-22T03:32:53;102214.53;;;15.46
77728;BMP280;68312;53.502;10.030;2023-06-22T03:35:19;102213.13;;;15.48
77728;BMP280;68312;53.502;10.030;2023-06-22T03:37:44;102222.47;;;15.54
77728;BMP280;68312;53.502;10.030;2023-06-22T03:40:10;102223.88;;;15.52
77728;BMP280;68312;53.502;10.030;2023-06-22T03:42:36;102225.59;;;15.56
77728;BMP280;68312;53.502;10.030;2023-06-22T03:45:03;102226.19;;;15.61
77728;BMP280;68312;53.502;10.030;2023-06-22T03:47:29;102234.78;;;15.75
77728;BMP280;68312;53.502;10.030;2023-06-22T03:49:55;102231.63;;;15.90
77728;BMP280;68312;53.502;10.030;2023-06-22T03:52:21;102230.66;;;16.03
77728;BMP280;68312;53.502;10.030;2023-06-22T03:54:47;102233.91;;;16.08
77728;BMP280;68312;53.502;10.030;2023-06-22T03:57:13;102236.72;;;16.11
77728;BMP280;68312;53.502;10.030;2023-06-22T03:59:39;102235.78;;;16.16
77728;BMP280;68312;53.502;10.030;2023-06-22T04:02:04;102237.78;;;16.19
77728;BMP280;68312;53.502;10.030;2023-06-22T04:04:30;102234.19;;;16.23
77728;BMP280;68312;53.502;10.030;2023-06-22T04:06:55;102238.22;;;16.29
77728;BMP280;68312;53.502;10.030;2023-06-22T04:09:21;102239.28;;;16.36
77728;BMP280;68312;53.502;10.030;2023-06-22T04:11:46;102241.44;;;16.43
77728;BMP280;68312;53.502;10.030;2023-06-22T04:14:12;102244.06;;;16.51
77728;BMP280;68312;53.502;10.030;2023-06-22T04:16:37;102248.41;;;16.56
77728;BMP280;68312;53.502;10.030;2023-06-22T04:19:03;102249.03;;;16.61
77728;BMP280;68312;53.502;10.030;2023-06-22T04:21:28;102250.81;;;16.69
77728;BMP280;68312;53.502;10.030;2023-06-22T04:23:54;102246.56;;;16.76
77728;BMP280;68312;53.502;10.030;2023-06-22T04:26:19;102250.28;;;16.84
77728;BMP280;68312;53.502;10.030;2023-06-22T04:28:45;102246.34;;;16.89
77728;BMP280;68312;53.502;10.030;2023-06-22T04:31:11;102256.13;;;16.97
77728;BMP280;68312;53.502;10.030;2023-06-22T04:33:36;102254.84;;;17.03
77728;BMP280;68312;53.502;10.030;2023-06-22T04:36:02;102261.19;;;17.11
77728;BMP280;68312;53.502;10.030;2023-06-22T04:38:28;102243.00;;;17.21
77728;BMP280;68312;53.502;10.030;2023-06-22T04:40:53;102245.91;;;17.28
77728;BMP280;68312;53.502;10.030;2023-06-22T04:43:19;102243.84;;;17.33
77728;BMP280;68312;53.502;10.030;2023-06-22T04:45:45;102243.78;;;17.41
77728;BMP280;68312;53.502;10.030;2023-06-22T04:48:11;102247.78;;;17.47
77728;BMP280;68312;53.502;10.030;2023-06-22T04:50:37;102241.59;;;17.55
77728;BMP280;68312;53.502;10.030;2023-06-22T04:53:03;102248.06;;;17.66
77728;BMP280;68312;53.502;10.030;2023-06-22T04:55:28;102251.53;;;17.78
77728;BMP280;68312;53.502;10.030;2023-06-22T04:57:54;102246.25;;;17.90
77728;BMP280;68312;53.502;10.030;2023-06-22T05:00:20;102249.59;;;17.99
77728;BMP280;68312;53.502;10.030;2023-06-22T05:02:46;102250.63;;;18.06
77728;BMP280;68312;53.502;10.030;2023-06-22T05:05:12;102249.75;;;18.14
77728;BMP280;68312;53.502;10.030;2023-06-22T05:07:50;102253.72;;;18.20
77728;BMP280;68312;53.502;10.030;2023-06-22T05:10:16;102246.66;;;18.24
77728;BMP280;68312;53.502;10.030;2023-06-22T05:12:42;102253.97;;;18.27
77728;BMP280;68312;53.502;10.030;2023-06-22T05:15:09;102253.41;;;18.33
77728;BMP280;68312;53.502;10.030;2023-06-22T05:17:36;102255.53;;;18.40
77728;BMP280;68312;53.502;10.030;2023-06-22T05:20:02;102249.41;;;18.39
77728;BMP280;68312;53.502;10.030;2023-06-22T05:22:28;102249.66;;;18.46
77728;BMP280;68312;53.502;10.030;2023-06-22T05:24:55;102252.84;;;18.51
77728;BMP280;68312;53.502;10.030;2023-06-22T05:27:20;102255.53;;;18.63
77728;BMP280;68312;53.502;10.030;2023-06-22T05:29:46;102251.28;;;18.74
77728;BMP280;68312;53.502;10.030;2023-06-22T05:32:11;102257.94;;;18.80
77728;BMP280;68312;53.502;10.030;2023-06-22T05:34:38;102260.94;;;18.78
77728;BMP280;68312;53.502;10.030;2023-06-22T05:37:04;102255.38;;;18.83
77728;BMP280;68312;53.502;10.030;2023-06-22T05:39:30;102256.22;;;18.99
77728;BMP280;68312;53.502;10.030;2023-06-22T05:41:55;102249.44;;;19.13
77728;BMP280;68312;53.502;10.030;2023-06-22T05:44:20;102242.84;;;19.23
77728;BMP280;68312;53.502;10.030;2023-06-22T05:46:46;102245.13;;;19.36
77728;BMP280;68312;53.502;10.030;2023-06-22T05:49:13;102240.56;;;19.36
77728;BMP280;68312;53.502;10.030;2023-06-22T05:51:39;102227.84;;;19.45
77728;BMP280;68312;53.502;10.030;2023-06-22T05:54:05;102231.84;;;19.66
77728;BMP280;68312;53.502;10.030;2023-06-22T05:56:31;102230.34;;;19.80
77728;BMP280;68312;53.502;10.030;2023-06-22T05:58:56;102228.44;;;19.96
77728;BMP280;68312;53.502;10.030;2023-06-22T06:01:22;102227.47;;;20.04
77728;BMP280;68312;53.502;10.030;2023-06-22T06:03:47;102226.00;;;20.06
77728;BMP280;68312;53.502;10.030;2023-06-22T06:06:13;102234.00;;;20.06
77728;BMP280;68312;53.502;10.030;2023-06-22T06:08:39;102235.56;;;20.23
77728;BMP280;68312;53.502;10.030;2023-06-22T06:11:04;102226.47;;;20.42
77728;BMP280;68312;53.502;10.030;2023-06-22T06:13:30;102230.00;;;20.46
77728;BMP280;68312;53.502;10.030;2023-06-22T06:15:56;102225.22;;;20.55
77728;BMP280;68312;53.502;10.030;2023-06-22T06:18:21;102229.19;;;20.61
77728;BMP280;68312;53.502;10.030;2023-06-22T06:20:47;102229.84;;;20.73
77728;BMP280;68312;53.502;10.030;2023-06-22T06:23:12;102222.09;;;20.87
77728;BMP280;68312;53.502;10.030;2023-06-22T06:25:38;102226.38;;;21.10
77728;BMP280;68312;53.502;10.030;2023-06-22T06:28:04;102224.75;;;21.24
77728;BMP280;68312;53.502;10.030;2023-06-22T06:30:30;102226.28;;;21.25
77728;BMP280;68312;53.502;10.030;2023-06-22T06:32:56;102220.13;;;21.43
77728;BMP280;68312;53.502;10.030;2023-06-22T06:35:21;102219.78;;;21.67
77728;BMP280;68312;53.502;10.030;2023-06-22T06:37:49;102212.84;;;21.88
77728;BMP280;68312;53.502;10.030;2023-06-22T06:40:17;102216.88;;;21.97
77728;BMP280;68312;53.502;10.030;2023-06-22T06:42:44;102214.13;;;21.94
77728;BMP280;68312;53.502;10.030;2023-06-22T06:45:18;102212.00;;;21.80
77728;BMP280;68312;53.502;10.030;2023-06-22T06:47:46;102215.50;;;21.84
77728;BMP280;68312;53.502;10.030;2023-06-22T06:50:15;102213.06;;;21.98
77728;BMP280;68312;53.502;10.030;2023-06-22T06:52:41;102203.38;;;22.16
77728;BMP280;68312;53.502;10.030;2023-06-22T06:55:08;102205.38;;;22.22
77728;BMP280;68312;53.502;10.030;2023-06-22T06:57:34;102201.53;;;22.49
77728;BMP280;68312;53.502;10.030;2023-06-22T07:00:00;102209.81;;;22.69
77728;BMP280;68312;53.502;10.030;2023-06-22T07:02:26;102198.59;;;22.60
77728;BMP280;68312;53.502;10.030;2023-06-22T07:04:52;102196.16;;;22.49
77728;BMP280;68312;53.502;10.030;2023-06-22T07:07:17;102201.84;;;22.44
77728;BMP280;68312;53.502;10.030;2023-06-22T07:09:43;102201.97;;;22.25
77728;BMP280;68312;53.502;10.030;2023-06-22T07:12:08;102196.31;;;22.05
77728;BMP280;68312;53.502;10.030;2023-06-22T07:14:34;102204.59;;;21.96
77728;BMP280;68312;53.502;10.030;2023-06-22T07:16:59;102206.88;;;21.94
77728;BMP280;68312;53.502;10.030;2023-06-22T07:19:26;102211.50;;;21.97
77728;BMP280;68312;53.502;10.030;2023-06-22T07:21:53;102212.59;;;22.18
77728;BMP280;68312;53.502;10.030;2023-06-22T07:24:20;102216.53;;;22.56
77728;BMP280;68312;53.502;10.030;2023-06-22T07:26:47;102206.50;;;22.79
77728;BMP280;68312;53.502;10.030;2023-06-22T07:29:14;102215.09;;;22.95
77728;BMP280;68312;53.502;10.030;2023-06-22T07:31:39;102214.22;;;22.84
77728;BMP280;68312;53.502;10.030;2023-06-22T07:34:05;102211.09;;;22.79
77728;BMP280;68312;53.502;10.030;2023-06-22T07:36:30;102205.63;;;23.04
77728;BMP280;68312;53.502;10.030;2023-06-22T07:38:56;102196.56;;;23.61
77728;BMP280;68312;53.502;10.030;2023-06-22T07:41:21;102210.72;;;24.11
77728;BMP280;68312;53.502;10.030;2023-06-22T07:43:50;102197.81;;;24.48
77728;BMP280;68312;53.502;10.030;2023-06-22T07:46:15;102204.72;;;24.52
77728;BMP280;68312;53.502;10.030;2023-06-22T07:48:41;102195.94;;;24.52
77728;BMP280;68312;53.502;10.030;2023-06-22T07:51:07;102204.63;;;24.25
77728;BMP280;68312;53.502;10.030;2023-06-22T07:53:33;102200.38;;;24.20
77728;BMP280;68312;53.502;10.030;2023-06-22T07:55:58;102206.91;;;24.19
77728;BMP280;68312;53.502;10.030;2023-06-22T07:58:24;102213.00;;;24.13
77728;BMP280;68312;53.502;10.030;2023-06-22T08:00:49;102212.28;;;24.19
77728;BMP280;68312;53.502;10.030;2023-06-22T08:03:15;102212.31;;;24.26
77728;BMP280;68312;53.502;10.030;2023-06-22T08:05:41;102201.16;;;24.17
77728;BMP280;68312;53.502;10.030;2023-06-22T08:08:06;102194.22;;;24.16
77728;BMP280;68312;53.502;10.030;2023-06-22T08:10:32;102201.31;;;24.58
77728;BMP280;68312;53.502;10.030;2023-06-22T08:13:00;102198.66;;;24.72
77728;BMP280;68312;53.502;10.030;2023-06-22T08:15:26;102203.75;;;24.98
77728;BMP280;68312;53.502;10.030;2023-06-22T08:17:51;102196.44;;;25.08
77728;BMP280;68312;53.502;10.030;2023-06-22T08:20:17;102194.50;;;25.47
77728;BMP280;68312;53.502;10.030;2023-06-22T08:22:43;102184.47;;;25.74
77728;BMP280;68312;53.502;10.030;2023-06-22T08:25:09;102187.69;;;26.37
77728;BMP280;68312;53.502;10.030;2023-06-22T08:27:36;102182.91;;;26.65
77728;BMP280;68312;53.502;10.030;2023-06-22T08:30:02;102185.47;;;26.25
77728;BMP280;68312;53.502;10.030;2023-06-22T08:32:29;102191.03;;;25.63
77728;BMP280;68312;53.502;10.030;2023-06-22T08:34:56;102191.84;;;25.23
77728;BMP280;68312;53.502;10.030;2023-06-22T08:37:22;102184.13;;;25.07
77728;BMP280;68312;53.502;10.030;2023-06-22T08:39:49;102188.34;;;25.05
77728;BMP280;68312;53.502;10.030;2023-06-22T08:42:14;102193.38;;;25.10
77728;BMP280;68312;53.502;10.030;2023-06-22T08:44:40;102191.81;;;25.09
77728;BMP280;68312;53.502;10.030;2023-06-22T08:47:05;102184.16;;;25.25
77728;BMP280;68312;53.502;10.030;2023-06-22T08:49:31;102182.59;;;25.27
77728;BMP280;68312;53.502;10.030;2023-06-22T08:51:56;102172.22;;;26.47
77728;BMP280;68312;53.502;10.030;2023-06-22T08:54:22;102169.38;;;27.58
77728;BMP280;68312;53.502;10.030;2023-06-22T08:56:48;102161.31;;;28.16
77728;BMP280;68312;53.502;10.030;2023-06-22T08:59:13;102160.59;;;29.09
77728;BMP280;68312;53.502;10.030;2023-06-22T09:01:39;102155.44;;;29.56
77728;BMP280;68312;53.502;10.030;2023-06-22T09:04:04;102156.31;;;29.50
77728;BMP280;68312;53.502;10.030;2023-06-22T09:06:32;102150.81;;;29.34
77728;BMP280;68312;53.502;10.030;2023-06-22T09:08:58;102152.19;;;29.80
77728;BMP280;68312;53.502;10.030;2023-06-22T09:11:23;102141.63;;;30.36
77728;BMP280;68312;53.502;10.030;2023-06-22T09:13:49;102146.97;;;30.83
77728;BMP280;68312;53.502;10.030;2023-06-22T09:16:14;102144.63;;;30.22
77728;BMP280;68312;53.502;10.030;2023-06-22T09:18:40;102139.72;;;30.64
77728;BMP280;68312;53.502;10.030;2023-06-22T09:21:05;102135.13;;;30.62
77728;BMP280;68312;53.502;10.030;2023-06-22T09:23:31;102126.66;;;30.44
77728;BMP280;68312;53.502;10.030;2023-06-22T09:25:56;102121.31;;;30.56
77728;BMP280;68312;53.502;10.030;2023-06-22T09:28:22;102121.41;;;30.68
77728;BMP280;68312;53.502;10.030;2023-06-22T09:30:47;102121.88;;;30.95
77728;BMP280;68312;53.502;10.030;2023-06-22T09:33:12;102125.38;;;31.08
77728;BMP280;68312;53.502;10.030;2023-06-22T09:35:41;102118.03;;;30.49
77728;BMP280;68312;53.502;10.030;2023-06-22T09:38:06;102115.31;;;30.33
77728;BMP280;68312;53.502;10.030;2023-06-22T09:40:32;102114.09;;;30.18
77728;BMP280;68312;53.502;10.030;2023-06-22T09:42:57;102110.13;;;30.54
77728;BMP280;68312;53.502;10.030;2023-06-22T09:45:23;102106.25;;;30.83
77728;BMP280;68312;53.502;10.030;2023-06-22T09:47:48;102111.91;;;31.16
77728;BMP280;68312;53.502;10.030;2023-06-22T09:50:14;102116.28;;;31.26
77728;BMP280;68312;53.502;10.030;2023-06-22T09:52:39;102109.78;;;31.36
77728;BMP280;68312;53.502;10.030;2023-06-22T09:55:05;102115.56;;;31.38
77728;BMP280;68312;53.502;10.030;2023-06-22T09:57:31;102109.94;;;31.69
77728;BMP280;68312;53.502;10.030;2023-06-22T09:59:56;102098.50;;;31.98
77728;BMP280;68312;53.502;10.030;2023-06-22T10:02:22;102088.72;;;32.01
77728;BMP280;68312;53.502;10.030;2023-06-22T10:04:48;102091.09;;;31.99
77728;BMP280;68312;53.502;10.030;2023-06-22T10:07:13;102091.13;;;31.87
77728;BMP280;68312;53.502;10.030;2023-06-22T10:09:39;102093.19;;;30.35
77728;BMP280;68312;53.502;10.030;2023-06-22T10:12:04;102092.13;;;29.82
77728;BMP280;68312;53.502;10.030;2023-06-22T10:14:30;102090.09;;;29.32
77728;BMP280;68312;53.502;10.030;2023-06-22T10:16:56;102101.34;;;28.70
77728;BMP280;68312;53.502;10.030;2023-06-22T10:19:21;102093.50;;;28.04
77728;BMP280;68312;53.502;10.030;2023-06-22T10:21:47;102098.50;;;28.32
77728;BMP280;68312;53.502;10.030;2023-06-22T10:24:12;102096.09;;;28.82
77728;BMP280;68312;53.502;10.030;2023-06-22T10:26:38;102092.56;;;29.96
77728;BMP280;68312;53.502;10.030;2023-06-22T10:29:03;102079.78;;;30.59
77728;BMP280;68312;53.502;10.030;2023-06-22T10:31:29;102075.41;;;31.17
77728;BMP280;68312;53.502;10.030;2023-06-22T10:33:55;102077.59;;;31.47
77728;BMP280;68312;53.502;10.030;2023-06-22T10:36:22;102065.03;;;31.65
77728;BMP280;68312;53.502;10.030;2023-06-22T10:38:48;102062.84;;;31.35
77728;BMP280;68312;53.502;10.030;2023-06-22T10:41:17;102057.28;;;31.39
77728;BMP280;68312;53.502;10.030;2023-06-22T10:43:42;102063.97;;;31.75
77728;BMP280;68312;53.502;10.030;2023-06-22T10:46:09;102046.81;;;31.98
77728;BMP280;68312;53.502;10.030;2023-06-22T10:48:34;102053.59;;;31.82
77728;BMP280;68312;53.502;10.030;2023-06-22T10:51:00;102056.19;;;31.98
77728;BMP280;68312;53.502;10.030;2023-06-22T10:53:25;102061.31;;;31.83
77728;BMP280;68312;53.502;10.030;2023-06-22T10:55:50;102040.03;;;32.27
77728;BMP280;68312;53.502;10.030;2023-06-22T10:58:18;102046.28;;;32.37
77728;BMP280;68312;53.502;10.030;2023-06-22T11:00:46;102050.72;;;32.10
77728;BMP280;68312;53.502;10.030;2023-06-22T11:03:12;102040.78;;;32.16
77728;BMP280;68312;53.502;10.030;2023-06-22T11:05:37;102035.13;;;32.22
77728;BMP280;68312;53.502;10.030;2023-06-22T11:08:03;102040.69;;;32.19
77728;BMP280;68312;53.502;10.030;2023-06-22T11:10:29;102033.13;;;32.02
77728;BMP280;68312;53.502;10.030;2023-06-22T11:12:54;102041.75;;;31.76
77728;BMP280;68312;53.502;10.030;2023-06-22T11:15:19;102033.66;;;31.97
77728;BMP280;68312;53.502;10.030;2023-06-22T11:17:45;102038.44;;;32.39
77728;BMP280;68312;53.502;10.030;2023-06-22T11:20:11;102046.69;;;32.14
77728;BMP280;68312;53.502;10.030;2023-06-22T11:22:40;102034.63;;;32.36
77728;BMP280;68312;53.502;10.030;2023-06-22T11:25:06;102028.38;;;33.20
77728;BMP280;68312;53.502;10.030;2023-06-22T11:27:33;102024.63;;;33.74
77728;BMP280;68312;53.502;10.030;2023-06-22T11:29:59;102020.38;;;33.25
77728;BMP280;68312;53.502;10.030;2023-06-22T11:32:24;102029.19;;;32.78
77728;BMP280;68312;53.502;10.030;2023-06-22T11:34:50;102017.41;;;32.60
77728;BMP280;68312;53.502;10.030;2023-06-22T11:37:15;102020.66;;;32.13
77728;BMP280;68312;53.502;10.030;2023-06-22T11:39:42;102022.72;;;31.39
77728;BMP280;68312;53.502;10.030;2023-06-22T11:42:07;102019.69;;;31.50
77728;BMP280;68312;53.502;10.030;2023-06-22T11:44:34;102007.81;;;30.95
77728;BMP280;68312;53.502;10.030;2023-06-22T11:46:59;102017.31;;;30.31
77728;BMP280;68312;53.502;10.030;2023-06-22T11:49:25;102013.38;;;29.89
77728;BMP280;68312;53.502;10.030;2023-06-22T11:51:50;102015.31;;;29.38
77728;BMP280;68312;53.502;10.030;2023-06-22T11:54:16;102007.97;;;29.38
77728;BMP280;68312;53.502;10.030;2023-06-22T11:56:41;101999.44;;;29.40
77728;BMP280;68312;53.502;10.030;2023-06-22T11:59:07;102006.63;;;29.46
77728;BMP280;68312;53.502;10.030;2023-06-22T12:01:32;102004.28;;;29.64
77728;BMP280;68312;53.502;10.030;2023-06-22T12:03:57;101995.13;;;29.89
77728;BMP280;68312;53.502;10.030;2023-06-22T12:06:26;102005.63;;;30.18
77728;BMP280;68312;53.502;10.030;2023-06-22T12:08:52;101991.69;;;30.88
77728;BMP280;68312;53.502;10.030;2023-06-22T12:11:18;101982.72;;;31.03
77728;BMP280;68312;53.502;10.030;2023-06-22T12:13:44;101977.63;;;31.05
77728;BMP280;68312;53.502;10.030;2023-06-22T12:16:09;101976.81;;;30.80
77728;BMP280;68312;53.502;10.030;2023-06-22T12:18:34;101971.47;;;30.21
77728;BMP280;68312;53.502;10.030;2023-06-22T12:21:00;101966.06;;;29.90
77728;BMP280;68312;53.502;10.030;2023-06-22T12:23:25;101959.25;;;29.70
77728;BMP280;68312;53.502;10.030;2023-06-22T12:25:51;101962.63;;;29.42
77728;BMP280;68312;53.502;10.030;2023-06-22T12:28:16;101959.88;;;29.07
77728;BMP280;68312;53.502;10.030;2023-06-22T12:30:42;101960.69;;;29.24
77728;BMP280;68312;53.502;10.030;2023-06-22T12:33:07;101956.03;;;29.59
77728;BMP280;68312;53.502;10.030;2023-06-22T12:35:33;101948.75;;;29.72
77728;BMP280;68312;53.502;10.030;2023-06-22T12:37:59;101953.63;;;29.45
77728;BMP280;68312;53.502;10.030;2023-06-22T12:40:25;101958.81;;;29.71
77728;BMP280;68312;53.502;10.030;2023-06-22T12:42:50;101960.16;;;30.10
77728;BMP280;68312;53.502;10.030;2023-06-22T12:45:16;101951.13;;;30.69
77728;BMP280;68312;53.502;10.030;2023-06-22T12:47:41;101945.91;;;31.14
77728;BMP280;68312;53.502;10.030;2023-06-22T12:50:07;101946.31;;;31.62
77728;BMP280;68312;53.502;10.030;2023-06-22T12:52:36;101936.91;;;32.50
77728;BMP280;68312;53.502;10.030;2023-06-22T12:55:02;101921.81;;;32.79
77728;BMP280;68312;53.502;10.030;2023-06-22T12:57:28;101925.47;;;31.80
77728;BMP280;68312;53.502;10.030;2023-06-22T12:59:53;101928.06;;;31.38
77728;BMP280;68312;53.502;10.030;2023-06-22T13:02:18;101921.88;;;30.76
77728;BMP280;68312;53.502;10.030;2023-06-22T13:04:44;101922.91;;;30.26
77728;BMP280;68312;53.502;10.030;2023-06-22T13:07:09;101921.75;;;30.40
77728;BMP280;68312;53.502;10.030;2023-06-22T13:09:36;101934.63;;;30.23
77728;BMP280;68312;53.502;10.030;2023-06-22T13:12:02;101927.19;;;30.92
77728;BMP280;68312;53.502;10.030;2023-06-22T13:14:27;101926.75;;;30.81
77728;BMP280;68312;53.502;10.030;2023-06-22T13:16:53;101931.97;;;30.48
77728;BMP280;68312;53.502;10.030;2023-06-22T13:19:18;101932.72;;;29.93
77728;BMP280;68312;53.502;10.030;2023-06-22T13:21:44;101923.66;;;29.83
77728;BMP280;68312;53.502;10.030;2023-06-22T13:24:09;101920.44;;;29.57
77728;BMP280;68312;53.502;10.030;2023-06-22T13:26:35;101923.75;;;28.98
77728;BMP280;68312;53.502;10.030;2023-06-22T13:29:00;101915.50;;;28.67
77728;BMP280;68312;53.502;10.030;2023-06-22T13:31:28;101920.59;;;28.42
77728;BMP280;68312;53.502;10.030;2023-06-22T13:33:54;101925.75;;;28.14
77728;BMP280;68312;53.502;10.030;2023-06-22T13:36:19;101922.66;;;28.16
77728;BMP280;68312;53.502;10.030;2023-06-22T13:38:45;101913.53;;;28.48
77728;BMP280;68312;53.502;10.030;2023-06-22T13:41:10;101908.13;;;28.48
77728;BMP280;68312;53.502;10.030;2023-06-22T13:43:36;101913.19;;;28.46
77728;BMP280;68312;53.502;10.030;2023-06-22T13:46:01;101909.03;;;28.61
77728;BMP280;68312;53.502;10.030;2023-06-22T13:48:27;101900.78;;;28.68